sensor_id;sensor_type;location;lat;lon;timestamp;P1;durP1;ratioP1;P2;durP2;ratioP2
36659;SDS011;22654;51.054;3.654;2022-12-07T00:00:51;10.48;;;6.20;;
36659;SDS011;22654;51.054;3.654;2022-12-07T00:03:17;9.93;;;6.40;;
36659;SDS011;22654;51.054;3.654;2022-12-07T00:05:43;7.75;;;6.25;;
36659;SDS011;22654;51.054;3.654;2022-12-07T00:08:09;9.18;;;6.22;;
36659;SDS011;22654;51.054;3.654;2022-12-07T00:10:34;11.95;;;5.93;;
36659;SDS011;22654;51.054;3.654;2022-12-07T00:13:00;10.45;;;5.82;;
36659;SDS011;22654;51.054;3.654;2022-12-07T00:15:26;9.35;;;5.53;;
36659;SDS011;22654;51.054;3.654;2022-12-07T00:17:52;13.38;;;6.00;;
36659;SDS011;22654;51.054;3.654;2022-12-07T00:20:17;11.40;;;6.63;;
36659;SDS011;22654;51.054;3.654;2022-12-07T00:22:43;11.05;;;6.32;;
36659;SDS011;22654;51.054;3.654;2022-12-07T00:25:09;9.95;;;5.85;;
36659;SDS011;22654;51.054;3.654;2022-12-07T00:27:35;10.90;;;5.55;;
36659;SDS011;22654;51.054;3.654;2022-12-07T00:30:01;11.63;;;6.60;;
36659;SDS011;22654;51.054;3.654;2022-12-07T00:32:27;12.90;;;7.15;;
36659;SDS011;22654;51.054;3.654;2022-12-07T00:34:53;9.70;;;6.65;;
36659;SDS011;22654;51.054;3.654;2022-12-07T00:37:19;9.98;;;6.40;;
36659;SDS011;22654;51.054;3.654;2022-12-07T00:39:45;12.32;;;5.75;;
36659;SDS011;22654;51.054;3.654;2022-12-07T00:42:11;10.25;;;6.10;;
36659;SDS011;22654;51.054;3.654;2022-12-07T00:44:37;9.07;;;6.45;;
36659;SDS011;22654;51.054;3.654;2022-12-07T00:47:03;9.77;;;5.30;;
36659;SDS011;22654;51.054;3.654;2022-12-07T00:49:29;10.20;;;6.22;;
36659;SDS011;22654;51.054;3.654;2022-12-07T00:51:55;7.82;;;5.82;;
36659;SDS011;22654;51.054;3.654;2022-12-07T00:54:20;11.73;;;6.60;;
36659;SDS011;22654;51.054;3.654;2022-12-07T00:56:48;8.35;;;6.72;;
36659;SDS011;22654;51.054;3.654;2022-12-07T00:59:13;9.15;;;6.82;;
36659;SDS011;22654;51.054;3.654;2022-12-07T01:01:40;11.30;;;6.68;;
36659;SDS011;22654;51.054;3.654;2022-12-07T01:04:06;11.55;;;7.55;;
36659;SDS011;22654;51.054;3.654;2022-12-07T01:06:32;13.68;;;7.03;;
36659;SDS011;22654;51.054;3.654;2022-12-07T01:08:58;12.43;;;7.93;;
36659;SDS011;22654;51.054;3.654;2022-12-07T01:11:26;9.20;;;7.70;;
36659;SDS011;22654;51.054;3.654;2022-12-07T01:13:54;12.55;;;6.97;;
36659;SDS011;22654;51.054;3.654;2022-12-07T01:16:22;9.48;;;7.78;;
36659;SDS011;22654;51.054;3.654;2022-12-07T01:18:50;10.32;;;7.47;;
36659;SDS011;22654;51.054;3.654;2022-12-07T01:21:21;11.55;;;7.95;;
36659;SDS011;22654;51.054;3.654;2022-12-07T01:23:49;10.40;;;8.30;;
36659;SDS011;22654;51.054;3.654;2022-12-07T01:26:17;12.88;;;8.13;;
36659;SDS011;22654;51.054;3.654;2022-12-07T01:28:45;15.90;;;8.82;;
36659;SDS011;22654;51.054;3.654;2022-12-07T01:31:13;11.27;;;9.20;;
36659;SDS011;22654;51.054;3.654;2022-12-07T01:33:41;10.65;;;8.82;;
36659;SDS011;22654;51.054;3.654;2022-12-07T01:36:30;14.27;;;10.13;;
36659;SDS011;22654;51.054;3.654;2022-12-07T01:38:57;11.73;;;9.48;;
36659;SDS011;22654;51.054;3.654;2022-12-07T01:41:26;18.65;;;10.52;;
36659;SDS011;22654;51.054;3.654;2022-12-07T01:46:49;15.70;;;10.13;;
36659;SDS011;22654;51.054;3.654;2022-12-07T01:51:50;15.40;;;10.32;;
36659;SDS011;22654;51.054;3.654;2022-12-07T01:54:22;12.70;;;10.45;;
36659;SDS011;22654;51.054;3.654;2022-12-07T01:56:51;14.85;;;10.02;;
36659;SDS011;22654;51.054;3.654;2022-12-07T01:59:20;14.63;;;12.40;;
36659;SDS011;22654;51.054;3.654;2022-12-07T02:01:50;14.95;;;12.23;;
36659;SDS011;22654;51.054;3.654;2022-12-07T02:04:16;17.58;;;12.18;;
36659;SDS011;22654;51.054;3.654;2022-12-07T02:06:43;19.27;;;12.38;;
36659;SDS011;22654;51.054;3.654;2022-12-07T02:09:09;14.27;;;12.27;;
36659;SDS011;22654;51.054;3.654;2022-12-07T02:11:36;18.25;;;11.85;;
36659;SDS011;22654;51.054;3.654;2022-12-07T02:14:02;20.67;;;13.05;;
36659;SDS011;22654;51.054;3.654;2022-12-07T02:16:34;20.35;;;12.70;;
36659;SDS011;22654;51.054;3.654;2022-12-07T02:19:23;18.85;;;13.93;;
36659;SDS011;22654;51.054;3.654;2022-12-07T02:27:52;15.50;;;11.43;;
36659;SDS011;22654;51.054;3.654;2022-12-07T02:30:31;14.55;;;12.00;;
36659;SDS011;22654;51.054;3.654;2022-12-07T02:33:24;19.42;;;12.52;;
36659;SDS011;22654;51.054;3.654;2022-12-07T02:35:59;17.60;;;13.05;;
36659;SDS011;22654;51.054;3.654;2022-12-07T02:39:10;29.17;;;14.27;;
36659;SDS011;22654;51.054;3.654;2022-12-07T02:41:34;24.80;;;14.52;;
36659;SDS011;22654;51.054;3.654;2022-12-07T02:44:08;17.75;;;13.77;;
36659;SDS011;22654;51.054;3.654;2022-12-07T02:46:39;20.83;;;14.30;;
36659;SDS011;22654;51.054;3.654;2022-12-07T02:49:07;19.55;;;13.15;;
36659;SDS011;22654;51.054;3.654;2022-12-07T02:51:38;19.13;;;12.95;;
36659;SDS011;22654;51.054;3.654;2022-12-07T02:54:12;18.30;;;13.15;;
36659;SDS011;22654;51.054;3.654;2022-12-07T03:10:09;17.85;;;8.40;;
36659;SDS011;22654;51.054;3.654;2022-12-07T03:15:18;20.27;;;10.18;;
36659;SDS011;22654;51.054;3.654;2022-12-07T03:17:52;10.95;;;8.73;;
36659;SDS011;22654;51.054;3.654;2022-12-07T03:20:22;15.60;;;9.05;;
36659;SDS011;22654;51.054;3.654;2022-12-07T03:22:49;18.70;;;8.80;;
36659;SDS011;22654;51.054;3.654;2022-12-07T03:25:18;11.45;;;8.02;;
36659;SDS011;22654;51.054;3.654;2022-12-07T03:27:49;10.57;;;7.60;;
36659;SDS011;22654;51.054;3.654;2022-12-07T03:30:21;10.70;;;7.75;;
36659;SDS011;22654;51.054;3.654;2022-12-07T03:35:29;13.63;;;8.10;;
36659;SDS011;22654;51.054;3.654;2022-12-07T03:38:13;12.75;;;7.63;;
36659;SDS011;22654;51.054;3.654;2022-12-07T03:40:44;13.13;;;7.72;;
36659;SDS011;22654;51.054;3.654;2022-12-07T03:43:17;11.38;;;6.97;;
36659;SDS011;22654;51.054;3.654;2022-12-07T03:45:47;11.05;;;7.43;;
36659;SDS011;22654;51.054;3.654;2022-12-07T03:48:31;9.73;;;7.00;;
36659;SDS011;22654;51.054;3.654;2022-12-07T03:51:13;13.00;;;6.95;;
36659;SDS011;22654;51.054;3.654;2022-12-07T03:53:48;12.90;;;7.25;;
36659;SDS011;22654;51.054;3.654;2022-12-07T03:56:24;9.77;;;6.70;;
36659;SDS011;22654;51.054;3.654;2022-12-07T03:58:51;11.40;;;6.95;;
36659;SDS011;22654;51.054;3.654;2022-12-07T04:01:18;14.15;;;6.95;;
36659;SDS011;22654;51.054;3.654;2022-12-07T04:03:44;10.20;;;5.90;;
36659;SDS011;22654;51.054;3.654;2022-12-07T04:06:10;10.90;;;6.20;;
36659;SDS011;22654;51.054;3.654;2022-12-07T04:08:36;12.55;;;6.63;;
36659;SDS011;22654;51.054;3.654;2022-12-07T04:11:02;8.77;;;6.35;;
36659;SDS011;22654;51.054;3.654;2022-12-07T04:13:28;12.27;;;6.15;;
36659;SDS011;22654;51.054;3.654;2022-12-07T04:15:53;9.88;;;6.35;;
36659;SDS011;22654;51.054;3.654;2022-12-07T04:18:19;10.23;;;6.75;;
36659;SDS011;22654;51.054;3.654;2022-12-07T04:20:45;17.92;;;7.70;;
36659;SDS011;22654;51.054;3.654;2022-12-07T04:23:11;13.70;;;6.97;;
36659;SDS011;22654;51.054;3.654;2022-12-07T04:25:37;17.55;;;8.75;;
36659;SDS011;22654;51.054;3.654;2022-12-07T04:28:03;17.73;;;7.50;;
36659;SDS011;22654;51.054;3.654;2022-12-07T04:30:29;14.20;;;7.85;;
36659;SDS011;22654;51.054;3.654;2022-12-07T04:32:55;14.57;;;8.40;;
36659;SDS011;22654;51.054;3.654;2022-12-07T04:35:21;20.15;;;8.40;;
36659;SDS011;22654;51.054;3.654;2022-12-07T04:37:46;14.23;;;8.23;;
36659;SDS011;22654;51.054;3.654;2022-12-07T04:40:12;17.67;;;9.73;;
36659;SDS011;22654;51.054;3.654;2022-12-07T04:42:39;14.93;;;8.02;;
36659;SDS011;22654;51.054;3.654;2022-12-07T04:45:05;30.58;;;10.18;;
36659;SDS011;22654;51.054;3.654;2022-12-07T04:47:31;21.90;;;8.75;;
36659;SDS011;22654;51.054;3.654;2022-12-07T04:49:57;17.90;;;8.43;;
36659;SDS011;22654;51.054;3.654;2022-12-07T04:52:23;12.52;;;8.50;;
36659;SDS011;22654;51.054;3.654;2022-12-07T04:54:49;14.18;;;7.80;;
36659;SDS011;22654;51.054;3.654;2022-12-07T04:57:15;14.73;;;7.10;;
36659;SDS011;22654;51.054;3.654;2022-12-07T04:59:41;16.20;;;7.22;;
36659;SDS011;22654;51.054;3.654;2022-12-07T05:02:07;13.93;;;7.07;;
36659;SDS011;22654;51.054;3.654;2022-12-07T05:04:32;10.60;;;7.45;;
36659;SDS011;22654;51.054;3.654;2022-12-07T05:06:58;15.70;;;7.57;;
36659;SDS011;22654;51.054;3.654;2022-12-07T05:09:24;21.77;;;9.45;;
36659;SDS011;22654;51.054;3.654;2022-12-07T05:11:50;15.25;;;8.52;;
36659;SDS011;22654;51.054;3.654;2022-12-07T05:14:17;17.13;;;11.40;;
36659;SDS011;22654;51.054;3.654;2022-12-07T05:16:45;15.77;;;8.20;;
36659;SDS011;22654;51.054;3.654;2022-12-07T05:19:15;17.73;;;9.45;;
36659;SDS011;22654;51.054;3.654;2022-12-07T05:21:41;11.57;;;9.18;;
36659;SDS011;22654;51.054;3.654;2022-12-07T05:24:07;16.92;;;8.77;;
36659;SDS011;22654;51.054;3.654;2022-12-07T05:26:35;16.00;;;8.48;;
36659;SDS011;22654;51.054;3.654;2022-12-07T05:29:01;8.52;;;7.40;;
36659;SDS011;22654;51.054;3.654;2022-12-07T05:31:27;11.40;;;7.43;;
36659;SDS011;22654;51.054;3.654;2022-12-07T05:33:53;13.70;;;7.65;;
36659;SDS011;22654;51.054;3.654;2022-12-07T05:36:19;12.35;;;7.38;;
36659;SDS011;22654;51.054;3.654;2022-12-07T05:38:46;13.90;;;7.55;;
36659;SDS011;22654;51.054;3.654;2022-12-07T05:41:13;9.98;;;6.88;;
36659;SDS011;22654;51.054;3.654;2022-12-07T05:43:59;9.90;;;6.93;;
36659;SDS011;22654;51.054;3.654;2022-12-07T05:46:26;9.95;;;6.90;;
36659;SDS011;22654;51.054;3.654;2022-12-07T05:48:52;11.77;;;7.57;;
36659;SDS011;22654;51.054;3.654;2022-12-07T05:51:17;11.35;;;7.20;;
36659;SDS011;22654;51.054;3.654;2022-12-07T05:53:44;10.45;;;8.23;;
36659;SDS011;22654;51.054;3.654;2022-12-07T05:56:10;16.83;;;8.50;;
36659;SDS011;22654;51.054;3.654;2022-12-07T05:58:35;15.55;;;8.80;;
36659;SDS011;22654;51.054;3.654;2022-12-07T06:01:20;18.15;;;8.75;;
36659;SDS011;22654;51.054;3.654;2022-12-07T06:03:46;12.18;;;8.38;;
36659;SDS011;22654;51.054;3.654;2022-12-07T06:06:11;18.42;;;9.32;;
36659;SDS011;22654;51.054;3.654;2022-12-07T06:08:37;13.38;;;9.23;;
36659;SDS011;22654;51.054;3.654;2022-12-07T06:11:03;17.58;;;10.25;;
36659;SDS011;22654;51.054;3.654;2022-12-07T06:13:48;14.73;;;9.05;;
36659;SDS011;22654;51.054;3.654;2022-12-07T06:16:13;21.95;;;11.50;;
36659;SDS011;22654;51.054;3.654;2022-12-07T06:18:40;23.90;;;11.98;;
36659;SDS011;22654;51.054;3.654;2022-12-07T06:21:05;23.60;;;11.93;;
36659;SDS011;22654;51.054;3.654;2022-12-07T06:23:31;18.23;;;11.60;;
36659;SDS011;22654;51.054;3.654;2022-12-07T06:25:57;25.10;;;11.30;;
36659;SDS011;22654;51.054;3.654;2022-12-07T06:28:23;16.35;;;10.73;;
36659;SDS011;22654;51.054;3.654;2022-12-07T06:30:56;22.10;;;10.73;;
36659;SDS011;22654;51.054;3.654;2022-12-07T06:33:23;18.60;;;10.50;;
36659;SDS011;22654;51.054;3.654;2022-12-07T06:35:49;16.52;;;9.38;;
36659;SDS011;22654;51.054;3.654;2022-12-07T06:38:15;12.85;;;9.70;;
36659;SDS011;22654;51.054;3.654;2022-12-07T06:40:40;19.65;;;11.20;;
36659;SDS011;22654;51.054;3.654;2022-12-07T06:43:06;17.35;;;11.10;;
36659;SDS011;22654;51.054;3.654;2022-12-07T06:45:33;21.20;;;12.40;;
36659;SDS011;22654;51.054;3.654;2022-12-07T06:47:58;22.30;;;11.82;;
36659;SDS011;22654;51.054;3.654;2022-12-07T06:50:28;18.70;;;10.40;;
36659;SDS011;22654;51.054;3.654;2022-12-07T06:52:54;18.38;;;9.95;;
36659;SDS011;22654;51.054;3.654;2022-12-07T06:55:20;23.70;;;13.07;;
36659;SDS011;22654;51.054;3.654;2022-12-07T06:57:46;17.52;;;11.65;;
36659;SDS011;22654;51.054;3.654;2022-12-07T07:00:12;15.00;;;11.07;;
36659;SDS011;22654;51.054;3.654;2022-12-07T07:02:39;22.52;;;11.35;;
36659;SDS011;22654;51.054;3.654;2022-12-07T07:05:05;15.52;;;9.63;;
36659;SDS011;22654;51.054;3.654;2022-12-07T07:07:31;20.10;;;12.02;;
36659;SDS011;22654;51.054;3.654;2022-12-07T07:09:56;17.83;;;11.32;;
36659;SDS011;22654;51.054;3.654;2022-12-07T07:12:22;15.70;;;10.50;;
36659;SDS011;22654;51.054;3.654;2022-12-07T07:14:48;20.00;;;10.88;;
36659;SDS011;22654;51.054;3.654;2022-12-07T07:17:14;13.38;;;9.80;;
36659;SDS011;22654;51.054;3.654;2022-12-07T07:19:39;17.75;;;11.00;;
36659;SDS011;22654;51.054;3.654;2022-12-07T07:22:05;430.15;;;41.88;;
36659;SDS011;22654;51.054;3.654;2022-12-07T07:24:31;21.55;;;11.85;;
36659;SDS011;22654;51.054;3.654;2022-12-07T07:26:57;17.58;;;10.77;;
36659;SDS011;22654;51.054;3.654;2022-12-07T07:29:23;25.10;;;10.80;;
36659;SDS011;22654;51.054;3.654;2022-12-07T07:31:49;23.63;;;10.10;;
36659;SDS011;22654;51.054;3.654;2022-12-07T07:34:14;18.38;;;9.27;;
36659;SDS011;22654;51.054;3.654;2022-12-07T07:36:40;19.17;;;8.68;;
36659;SDS011;22654;51.054;3.654;2022-12-07T07:39:06;13.85;;;8.13;;
36659;SDS011;22654;51.054;3.654;2022-12-07T07:41:32;16.10;;;8.52;;
36659;SDS011;22654;51.054;3.654;2022-12-07T07:43:58;13.90;;;8.57;;
36659;SDS011;22654;51.054;3.654;2022-12-07T07:46:23;12.52;;;7.95;;
36659;SDS011;22654;51.054;3.654;2022-12-07T07:48:49;12.65;;;7.55;;
36659;SDS011;22654;51.054;3.654;2022-12-07T07:51:15;15.63;;;7.82;;
36659;SDS011;22654;51.054;3.654;2022-12-07T07:53:41;13.52;;;7.53;;
36659;SDS011;22654;51.054;3.654;2022-12-07T07:56:06;15.13;;;7.55;;
36659;SDS011;22654;51.054;3.654;2022-12-07T07:58:32;13.32;;;7.22;;
36659;SDS011;22654;51.054;3.654;2022-12-07T08:01:05;18.75;;;7.97;;
36659;SDS011;22654;51.054;3.654;2022-12-07T08:03:32;14.75;;;8.77;;
36659;SDS011;22654;51.054;3.654;2022-12-07T08:05:58;16.42;;;9.25;;
36659;SDS011;22654;51.054;3.654;2022-12-07T08:08:24;14.57;;;9.73;;
36659;SDS011;22654;51.054;3.654;2022-12-07T08:10:50;15.05;;;10.05;;
36659;SDS011;22654;51.054;3.654;2022-12-07T08:13:16;14.32;;;10.63;;
36659;SDS011;22654;51.054;3.654;2022-12-07T08:15:47;13.35;;;9.90;;
36659;SDS011;22654;51.054;3.654;2022-12-07T08:18:14;17.75;;;9.55;;
36659;SDS011;22654;51.054;3.654;2022-12-07T08:20:41;20.58;;;10.40;;
36659;SDS011;22654;51.054;3.654;2022-12-07T08:23:07;25.88;;;11.45;;
36659;SDS011;22654;51.054;3.654;2022-12-07T08:25:34;19.38;;;10.75;;
36659;SDS011;22654;51.054;3.654;2022-12-07T08:28:00;20.45;;;10.73;;
36659;SDS011;22654;51.054;3.654;2022-12-07T08:30:27;24.38;;;11.07;;
36659;SDS011;22654;51.054;3.654;2022-12-07T08:32:53;19.77;;;10.95;;
36659;SDS011;22654;51.054;3.654;2022-12-07T08:35:19;27.20;;;12.43;;
36659;SDS011;22654;51.054;3.654;2022-12-07T08:37:46;20.20;;;12.07;;
36659;SDS011;22654;51.054;3.654;2022-12-07T08:40:12;22.60;;;12.40;;
36659;SDS011;22654;51.054;3.654;2022-12-07T08:42:41;19.77;;;11.55;;
36659;SDS011;22654;51.054;3.654;2022-12-07T08:45:10;22.00;;;11.23;;
36659;SDS011;22654;51.054;3.654;2022-12-07T08:47:51;18.95;;;9.55;;
36659;SDS011;22654;51.054;3.654;2022-12-07T08:50:27;16.58;;;9.88;;
36659;SDS011;22654;51.054;3.654;2022-12-07T08:52:54;19.25;;;10.95;;
36659;SDS011;22654;51.054;3.654;2022-12-07T08:55:22;16.73;;;10.05;;
36659;SDS011;22654;51.054;3.654;2022-12-07T08:57:48;20.25;;;10.32;;
36659;SDS011;22654;51.054;3.654;2022-12-07T09:00:15;14.65;;;10.70;;
36659;SDS011;22654;51.054;3.654;2022-12-07T09:02:44;22.52;;;9.82;;
36659;SDS011;22654;51.054;3.654;2022-12-07T09:05:11;18.23;;;8.27;;
36659;SDS011;22654;51.054;3.654;2022-12-07T09:07:40;15.32;;;8.25;;
36659;SDS011;22654;51.054;3.654;2022-12-07T09:10:08;17.08;;;8.48;;
36659;SDS011;22654;51.054;3.654;2022-12-07T09:12:34;19.50;;;8.05;;
36659;SDS011;22654;51.054;3.654;2022-12-07T09:15:00;17.48;;;8.00;;
36659;SDS011;22654;51.054;3.654;2022-12-07T09:17:26;13.60;;;8.75;;
36659;SDS011;22654;51.054;3.654;2022-12-07T09:19:52;23.15;;;8.70;;
36659;SDS011;22654;51.054;3.654;2022-12-07T09:22:18;20.15;;;7.70;;
36659;SDS011;22654;51.054;3.654;2022-12-07T09:24:43;19.02;;;6.97;;
36659;SDS011;22654;51.054;3.654;2022-12-07T09:27:11;16.85;;;6.95;;
36659;SDS011;22654;51.054;3.654;2022-12-07T09:29:37;20.40;;;9.05;;
36659;SDS011;22654;51.054;3.654;2022-12-07T09:32:03;16.27;;;6.70;;
36659;SDS011;22654;51.054;3.654;2022-12-07T09:34:30;15.00;;;6.72;;
36659;SDS011;22654;51.054;3.654;2022-12-07T09:36:57;17.33;;;7.28;;
36659;SDS011;22654;51.054;3.654;2022-12-07T09:39:23;13.43;;;7.20;;
36659;SDS011;22654;51.054;3.654;2022-12-07T09:41:49;12.40;;;6.28;;
36659;SDS011;22654;51.054;3.654;2022-12-07T09:44:20;15.45;;;6.55;;
36659;SDS011;22654;51.054;3.654;2022-12-07T09:46:49;13.77;;;6.68;;
36659;SDS011;22654;51.054;3.654;2022-12-07T09:49:21;10.80;;;6.38;;
36659;SDS011;22654;51.054;3.654;2022-12-07T09:51:59;7.47;;;6.45;;
36659;SDS011;22654;51.054;3.654;2022-12-07T09:54:25;13.75;;;6.00;;
36659;SDS011;22654;51.054;3.654;2022-12-07T09:56:51;12.07;;;6.25;;
36659;SDS011;22654;51.054;3.654;2022-12-07T09:59:18;14.20;;;6.13;;
36659;SDS011;22654;51.054;3.654;2022-12-07T10:01:48;11.48;;;6.28;;
36659;SDS011;22654;51.054;3.654;2022-12-07T10:04:21;13.07;;;6.28;;
36659;SDS011;22654;51.054;3.654;2022-12-07T10:06:50;14.20;;;6.15;;
36659;SDS011;22654;51.054;3.654;2022-12-07T10:09:17;13.55;;;6.30;;
36659;SDS011;22654;51.054;3.654;2022-12-07T10:14:35;12.38;;;6.68;;
36659;SDS011;22654;51.054;3.654;2022-12-07T10:17:17;12.27;;;6.85;;
36659;SDS011;22654;51.054;3.654;2022-12-07T10:20:12;8.30;;;6.78;;
36659;SDS011;22654;51.054;3.654;2022-12-07T10:22:56;11.40;;;7.15;;
36659;SDS011;22654;51.054;3.654;2022-12-07T10:25:26;10.50;;;6.90;;
36659;SDS011;22654;51.054;3.654;2022-12-07T10:27:58;14.23;;;6.70;;
36659;SDS011;22654;51.054;3.654;2022-12-07T10:30:25;14.73;;;7.28;;
36659;SDS011;22654;51.054;3.654;2022-12-07T10:32:51;12.02;;;7.25;;
36659;SDS011;22654;51.054;3.654;2022-12-07T10:35:21;15.77;;;6.53;;
36659;SDS011;22654;51.054;3.654;2022-12-07T10:37:50;12.63;;;7.28;;
36659;SDS011;22654;51.054;3.654;2022-12-07T10:40:28;11.55;;;6.40;;
36659;SDS011;22654;51.054;3.654;2022-12-07T10:45:29;18.25;;;8.00;;
36659;SDS011;22654;51.054;3.654;2022-12-07T11:02:00;10.30;;;5.38;;
36659;SDS011;22654;51.054;3.654;2022-12-07T11:04:53;6.88;;;4.90;;
36659;SDS011;22654;51.054;3.654;2022-12-07T11:13:02;11.63;;;4.30;;
36659;SDS011;22654;51.054;3.654;2022-12-07T11:37:59;8.48;;;2.97;;
36659;SDS011;22654;51.054;3.654;2022-12-07T11:40:33;4.90;;;2.97;;
36659;SDS011;22654;51.054;3.654;2022-12-07T11:43:04;5.80;;;3.00;;
36659;SDS011;22654;51.054;3.654;2022-12-07T11:46:08;4.10;;;2.38;;
36659;SDS011;22654;51.054;3.654;2022-12-07T11:48:45;8.38;;;3.65;;
36659;SDS011;22654;51.054;3.654;2022-12-07T11:51:32;3.85;;;2.83;;
36659;SDS011;22654;51.054;3.654;2022-12-07T11:54:04;6.15;;;2.60;;
36659;SDS011;22654;51.054;3.654;2022-12-07T11:56:37;4.03;;;2.33;;
36659;SDS011;22654;51.054;3.654;2022-12-07T11:59:17;3.70;;;1.80;;
36659;SDS011;22654;51.054;3.654;2022-12-07T12:02:00;6.45;;;2.42;;
36659;SDS011;22654;51.054;3.654;2022-12-07T12:09:48;4.03;;;1.77;;
36659;SDS011;22654;51.054;3.654;2022-12-07T12:16:10;6.07;;;2.72;;
36659;SDS011;22654;51.054;3.654;2022-12-07T12:21:07;6.47;;;3.85;;
36659;SDS011;22654;51.054;3.654;2022-12-07T12:24:21;5.85;;;3.10;;
36659;SDS011;22654;51.054;3.654;2022-12-07T12:26:31;5.22;;;3.00;;
36659;SDS011;22654;51.054;3.654;2022-12-07T12:29:00;6.65;;;4.35;;
36659;SDS011;22654;51.054;3.654;2022-12-07T12:31:38;8.10;;;3.70;;
36659;SDS011;22654;51.054;3.654;2022-12-07T12:36:57;6.38;;;3.92;;
36659;SDS011;22654;51.054;3.654;2022-12-07T12:39:23;9.63;;;4.05;;
36659;SDS011;22654;51.054;3.654;2022-12-07T12:41:51;13.80;;;5.22;;
36659;SDS011;22654;51.054;3.654;2022-12-07T12:54:32;9.63;;;4.25;;
36659;SDS011;22654;51.054;3.654;2022-12-07T13:15:46;8.02;;;3.83;;
36659;SDS011;22654;51.054;3.654;2022-12-07T13:18:38;5.03;;;2.85;;
36659;SDS011;22654;51.054;3.654;2022-12-07T13:31:41;6.13;;;3.50;;
36659;SDS011;22654;51.054;3.654;2022-12-07T13:34:40;3.97;;;2.67;;
36659;SDS011;22654;51.054;3.654;2022-12-07T13:37:11;8.77;;;2.92;;
36659;SDS011;22654;51.054;3.654;2022-12-07T13:39:48;6.45;;;2.80;;
36659;SDS011;22654;51.054;3.654;2022-12-07T13:44:59;4.22;;;2.42;;
36659;SDS011;22654;51.054;3.654;2022-12-07T13:47:49;5.05;;;2.45;;
36659;SDS011;22654;51.054;3.654;2022-12-07T13:50:26;7.55;;;2.45;;
36659;SDS011;22654;51.054;3.654;2022-12-07T13:53:00;5.35;;;2.22;;
36659;SDS011;22654;51.054;3.654;2022-12-07T13:55:27;3.00;;;1.92;;
36659;SDS011;22654;51.054;3.654;2022-12-07T13:57:54;3.92;;;1.50;;
36659;SDS011;22654;51.054;3.654;2022-12-07T14:00:21;3.38;;;1.40;;
36659;SDS011;22654;51.054;3.654;2022-12-07T14:02:59;2.92;;;1.58;;
36659;SDS011;22654;51.054;3.654;2022-12-07T14:05:29;7.35;;;1.83;;
36659;SDS011;22654;51.054;3.654;2022-12-07T14:07:57;4.20;;;1.40;;
36659;SDS011;22654;51.054;3.654;2022-12-07T14:10:26;5.63;;;1.80;;
36659;SDS011;22654;51.054;3.654;2022-12-07T14:12:55;2.97;;;1.38;;
36659;SDS011;22654;51.054;3.654;2022-12-07T14:15:22;14.95;;;7.85;;
36659;SDS011;22654;51.054;3.654;2022-12-07T14:17:53;8.93;;;4.70;;
36659;SDS011;22654;51.054;3.654;2022-12-07T14:23:00;6.70;;;1.95;;
36659;SDS011;22654;51.054;3.654;2022-12-07T14:26:03;3.22;;;1.45;;
36659;SDS011;22654;51.054;3.654;2022-12-07T14:28:33;6.95;;;1.85;;
36659;SDS011;22654;51.054;3.654;2022-12-07T14:31:01;5.47;;;2.10;;
36659;SDS011;22654;51.054;3.654;2022-12-07T14:33:28;3.05;;;1.42;;
36659;SDS011;22654;51.054;3.654;2022-12-07T14:35:54;6.03;;;1.70;;
36659;SDS011;22654;51.054;3.654;2022-12-07T14:38:23;5.03;;;1.73;;
36659;SDS011;22654;51.054;3.654;2022-12-07T14:40:53;3.10;;;1.48;;
36659;SDS011;22654;51.054;3.654;2022-12-07T14:43:39;5.72;;;1.92;;
36659;SDS011;22654;51.054;3.654;2022-12-07T14:46:06;2.95;;;1.83;;
36659;SDS011;22654;51.054;3.654;2022-12-07T14:48:31;4.50;;;2.45;;
36659;SDS011;22654;51.054;3.654;2022-12-07T14:50:57;5.45;;;2.55;;
36659;SDS011;22654;51.054;3.654;2022-12-07T14:53:25;4.80;;;2.63;;
36659;SDS011;22654;51.054;3.654;2022-12-07T14:55:55;7.70;;;3.45;;
36659;SDS011;22654;51.054;3.654;2022-12-07T14:58:21;6.63;;;3.50;;
36659;SDS011;22654;51.054;3.654;2022-12-07T15:00:47;7.35;;;2.15;;
36659;SDS011;22654;51.054;3.654;2022-12-07T15:03:13;3.53;;;2.13;;
36659;SDS011;22654;51.054;3.654;2022-12-07T15:05:39;2.70;;;1.63;;
36659;SDS011;22654;51.054;3.654;2022-12-07T15:08:06;5.00;;;3.60;;
36659;SDS011;22654;51.054;3.654;2022-12-07T15:10:33;4.85;;;3.70;;
36659;SDS011;22654;51.054;3.654;2022-12-07T15:13:03;5.45;;;2.30;;
36659;SDS011;22654;51.054;3.654;2022-12-07T15:15:48;3.85;;;2.30;;
36659;SDS011;22654;51.054;3.654;2022-12-07T15:18:16;3.35;;;2.67;;
36659;SDS011;22654;51.054;3.654;2022-12-07T15:20:42;5.70;;;2.83;;
36659;SDS011;22654;51.054;3.654;2022-12-07T15:23:09;2.83;;;2.30;;
36659;SDS011;22654;51.054;3.654;2022-12-07T15:25:35;2.50;;;2.28;;
36659;SDS011;22654;51.054;3.654;2022-12-07T15:28:01;3.40;;;2.28;;
36659;SDS011;22654;51.054;3.654;2022-12-07T15:30:27;4.43;;;2.40;;
36659;SDS011;22654;51.054;3.654;2022-12-07T15:32:53;2.67;;;2.15;;
36659;SDS011;22654;51.054;3.654;2022-12-07T15:35:19;4.10;;;3.08;;
36659;SDS011;22654;51.054;3.654;2022-12-07T15:37:45;4.28;;;3.35;;
36659;SDS011;22654;51.054;3.654;2022-12-07T15:40:17;4.30;;;3.45;;
36659;SDS011;22654;51.054;3.654;2022-12-07T15:42:43;6.68;;;3.75;;
36659;SDS011;22654;51.054;3.654;2022-12-07T15:45:09;4.55;;;3.40;;
36659;SDS011;22654;51.054;3.654;2022-12-07T15:47:37;7.00;;;3.63;;
36659;SDS011;22654;51.054;3.654;2022-12-07T15:52:35;5.57;;;3.80;;
36659;SDS011;22654;51.054;3.654;2022-12-07T15:55:01;6.05;;;3.90;;
36659;SDS011;22654;51.054;3.654;2022-12-07T15:57:28;11.57;;;5.45;;
36659;SDS011;22654;51.054;3.654;2022-12-07T15:59:55;10.00;;;6.38;;
36659;SDS011;22654;51.054;3.654;2022-12-07T16:02:21;8.20;;;6.03;;
36659;SDS011;22654;51.054;3.654;2022-12-07T16:04:47;8.65;;;4.90;;
36659;SDS011;22654;51.054;3.654;2022-12-07T16:07:13;9.02;;;4.72;;
36659;SDS011;22654;51.054;3.654;2022-12-07T16:09:41;7.13;;;5.00;;
36659;SDS011;22654;51.054;3.654;2022-12-07T16:12:11;8.30;;;6.05;;
36659;SDS011;22654;51.054;3.654;2022-12-07T16:14:38;12.57;;;8.13;;
36659;SDS011;22654;51.054;3.654;2022-12-07T16:17:05;15.15;;;8.63;;
36659;SDS011;22654;51.054;3.654;2022-12-07T16:19:32;16.60;;;9.18;;
36659;SDS011;22654;51.054;3.654;2022-12-07T16:22:04;15.88;;;10.05;;
36659;SDS011;22654;51.054;3.654;2022-12-07T16:24:33;18.38;;;9.77;;
36659;SDS011;22654;51.054;3.654;2022-12-07T16:26:59;16.05;;;10.60;;
36659;SDS011;22654;51.054;3.654;2022-12-07T16:29:25;13.73;;;9.27;;
36659;SDS011;22654;51.054;3.654;2022-12-07T16:31:51;14.82;;;8.00;;
36659;SDS011;22654;51.054;3.654;2022-12-07T16:34:17;16.73;;;8.48;;
36659;SDS011;22654;51.054;3.654;2022-12-07T16:36:43;13.13;;;8.48;;
36659;SDS011;22654;51.054;3.654;2022-12-07T16:39:09;11.02;;;9.13;;
36659;SDS011;22654;51.054;3.654;2022-12-07T16:41:35;11.10;;;8.90;;
36659;SDS011;22654;51.054;3.654;2022-12-07T16:44:05;14.35;;;8.65;;
36659;SDS011;22654;51.054;3.654;2022-12-07T16:46:33;15.63;;;8.95;;
36659;SDS011;22654;51.054;3.654;2022-12-07T16:49:00;11.25;;;7.47;;
36659;SDS011;22654;51.054;3.654;2022-12-07T16:51:26;12.55;;;8.80;;
36659;SDS011;22654;51.054;3.654;2022-12-07T16:53:52;16.55;;;9.00;;
36659;SDS011;22654;51.054;3.654;2022-12-07T16:56:19;21.02;;;10.52;;
36659;SDS011;22654;51.054;3.654;2022-12-07T16:58:45;17.25;;;10.02;;
36659;SDS011;22654;51.054;3.654;2022-12-07T17:01:13;17.25;;;11.52;;
36659;SDS011;22654;51.054;3.654;2022-12-07T17:03:44;13.90;;;9.35;;
36659;SDS011;22654;51.054;3.654;2022-12-07T17:06:15;11.50;;;9.27;;